Espace membre
Imprimable
Bousval, 03/03/2019, BEL - Le Cross de Bousval
Liste des rapports > Delhalle - 15 km - Classement
Recherche: Page: [1]
43 Entrées
 
Les réclamations ne sont plus acceptées, les résultats sont considérés comme définitifs.
RangNrNomAgeIOCLigueEquipeRéelTempsTkmMoy.ScrPtsLocalité
1.481FBINJE VALÉRIE49BEL1:09:201:09:244:38 12.9797774FIZE-FONTAINE
2.221FKLEMENCIC SCHMIDT NASTJA41SVN1:11:001:11:174:46 12.63124733KRAAINEM
3.6963FDE GREVE GEERTRUI44BELAG RUNNING TEAM1:11:351:11:414:47 12.56131720EREMBODEGEM
4.5999FCUISENAIRE KATHLEEN40BELLEG'S GO1:14:001:14:064:57 12.15162666
5.6261FCHAUVIN SARAH41FRAJC HSH1:15:531:15:555:04 11.86184626MONTIGNY-LE-TILLEUL
6.6000FBODART ANNE47BELJTP BLAJTP BLANCS GILETS1:15:451:16:205:06 11.79194622MARANSART
7.819FPIRSON FLORENCE47BELRIWA1:17:581:18:275:14 11.47227572GENVAL
8.170FVAST VÉRONIQUE41BELGAG1:20:071:20:135:21 11.22249530GEMBLOUX
9.6294FCHENNAK NAJAT46BELSPTWAVRE1:19:511:20:205:22 11.20254530WAVRE
10.694FBAIJOT REGINE48BELJCCS1:20:221:20:265:22 11.19259520HOUDREMONT
11.6072FSEGERS VIRGINIE48BELJTP BLANCS GILETS1:23:571:24:185:38 10.68314440ENINES
12.6318FVANDERPLAETSE VANESSA41BEL1:24:491:25:115:41 10.57324424AUDERGHEM
13.6941FBOSMANS CHRISTELLE49BEL1:25:011:25:155:41 10.56326420BAULERS
14.136FHAELTERMAN FLORENCE40BELSPTWAVRE1:24:501:25:165:42 10.56327422LIMAL
15.6978FBOUDART VIRGINIE44BELTURBO / PACRUN1:25:241:25:375:43 10.51335410LUTTRE
16.6117FDUPLAT FRANCOISE42BELJAMES1:25:231:25:445:43 10.50337409
17.6987FDANCOT SOPHIE47BEL1:25:481:26:015:45 10.46340402BOUSVAL
18.883FCASTIAU CÉLINE41BELRCAS1:27:531:28:205:54 10.19358366SCHAERBEEK
19.6989FALBERT NATHALIE45BELJCPMF GENAPPE1:28:181:28:425:55 10.15365356LOUPOIGNE
20.6268FPARIS MANO44BEL1:30:491:31:166:06 9.86394309OTTIGNIES
21.6998FREMY CATHY49BEL1:30:531:31:186:06 9.86395308TANGISSART
22.6944FHER VALERIE46FRAMYSTERE1:31:291:31:536:08 9.80402297HALLE
23.6291FHERION CECILE46BELJE COURS A INCOURT1:31:421:32:016:09 9.78404293PERWEZ
24.6022FDECADI ISABELLE41BELRIWA1:32:031:32:326:11 9.73409286
25.6265FCLOESPIN BÉNÉDICTE43BEL1:32:301:32:576:12 9.68416277COURT-SAINT-ETIENNE
26.6275FDEKAN ISABELLE47BELBLANCS GILETS1:32:391:33:016:13 9.68420272WAYS
27.943FHANOTEAU ISABELLE47BELROS SOMBREFFE1:32:471:33:166:14 9.65421270LIGNY
28.169FGENET MAGALI42BEL1:33:221:33:426:15 9.61427260DION-VALMONT
29.6957FMERLIN JOËLLE41BELCSFMYSTERE1:33:481:34:166:18 9.55440247BRUXELLES
30.6993FCHARLES DOBIAS STÉPHANIE47FRAJCPMF GENAPPE1:34:191:34:546:20 9.48446237BOUSVAL
31.6250FVANDEWEERD SOPHIE45BEL1:35:121:35:486:24 9.40456222LOUPOIGNE
32.6030FDRAUX STEPHANIE48BEL1:35:331:35:576:24 9.38458217
33.4806FERHARD CÉLINE41FRAGSK1:35:401:36:106:25 9.36460214TOURINNES-SAINT-LAMBERT
34.6118FDUPLAT ANNE42BELRUNNING CLUB NAMUR1:36:021:36:296:26 9.33461210SAINT-SERVAIS
35.310FCHARLES SOPHIE43BELWPRC1:36:061:36:386:27 9.31466206RHODE SAINT GENESE
36.6968FPOULAIN MARIE41BELJCPMF GENAPPE1:38:501:39:176:38 9.07482167COURT-SAINT-ETIENNE
37.5978FSEPULCHRE BARBARA43BEL1:40:061:40:456:43 8.93493146
38.6260FVANCOPPENOLLE KIM44BELKURISTO1:40:331:41:116:45 8.90495140BRUXELLES
39.6063FDENING MAUD43BELNAC1:41:291:41:406:47 8.85499129
40.437FVAN GORP ISABELLE48BELRONVAU1:43:111:43:316:55 8.69507106PERWEZ
41.7FHENNERESSE ISABELLE49BELMYSTERE1:47:061:47:467:12 8.3552258GEDINNE
42.149FJERKOVIC LYDIE40BELCSFMYSTERE1:48:111:48:397:15 8.2852347UCCLE
43.669FCAZALLE CELINE47FRANAC1:51:521:52:047:29 8.035354NIVELLES
DNF: abandon; DSQ: disqualifié; Vitesse en km/h
Page: [1]